sensor_id;sensor_type;location;lat;lon;timestamp;pressure;altitude;pressure_sealevel;temperature;humidity
75298;BME280;63896;45.990;18.688;2023-05-10T00:01:05;100878.47;;;8.75;90.95
75298;BME280;63896;45.990;18.688;2023-05-10T00:04:08;100872.34;;;8.74;91.09
75298;BME280;63896;45.990;18.688;2023-05-10T00:07:11;100870.53;;;8.75;91.34
75298;BME280;63896;45.990;18.688;2023-05-10T00:10:13;100862.34;;;8.70;91.78
75298;BME280;63896;45.990;18.688;2023-05-10T00:13:17;100866.38;;;8.66;91.66
75298;BME280;63896;45.990;18.688;2023-05-10T00:16:19;100864.94;;;8.63;92.18
75298;BME280;63896;45.990;18.688;2023-05-10T00:19:22;100857.38;;;8.60;92.35
75298;BME280;63896;45.990;18.688;2023-05-10T00:22:25;100862.25;;;8.56;92.85
75298;BME280;63896;45.990;18.688;2023-05-10T00:25:28;100858.78;;;8.56;92.88
75298;BME280;63896;45.990;18.688;2023-05-10T00:28:31;100852.41;;;8.50;93.04
75298;BME280;63896;45.990;18.688;2023-05-10T00:31:34;100854.16;;;8.43;93.53
75298;BME280;63896;45.990;18.688;2023-05-10T00:34:37;100851.69;;;8.42;93.55
75298;BME280;63896;45.990;18.688;2023-05-10T00:37:40;100852.47;;;8.36;94.13
75298;BME280;63896;45.990;18.688;2023-05-10T00:40:43;100845.91;;;8.32;94.22
75298;BME280;63896;45.990;18.688;2023-05-10T00:43:54;100847.34;;;8.34;94.32
75298;BME280;63896;45.990;18.688;2023-05-10T00:46:58;100844.91;;;8.33;94.32
75298;BME280;63896;45.990;18.688;2023-05-10T00:50:02;100836.16;;;8.32;94.39
75298;BME280;63896;45.990;18.688;2023-05-10T00:53:06;100835.88;;;8.27;94.76
75298;BME280;63896;45.990;18.688;2023-05-10T00:56:09;100850.03;;;8.20;94.99
75298;BME280;63896;45.990;18.688;2023-05-10T00:59:13;100833.94;;;8.14;95.58
75298;BME280;63896;45.990;18.688;2023-05-10T01:02:15;100838.69;;;8.04;95.94
75298;BME280;63896;45.990;18.688;2023-05-10T01:05:18;100835.16;;;7.97;95.99
75298;BME280;63896;45.990;18.688;2023-05-10T01:08:22;100832.06;;;7.94;96.08
75298;BME280;63896;45.990;18.688;2023-05-10T01:11:25;100826.06;;;7.85;97.38
75298;BME280;63896;45.990;18.688;2023-05-10T01:14:28;100830.84;;;7.75;97.30
75298;BME280;63896;45.990;18.688;2023-05-10T01:17:32;100827.38;;;7.75;97.77
75298;BME280;63896;45.990;18.688;2023-05-10T01:20:40;100823.91;;;7.74;98.15
75298;BME280;63896;45.990;18.688;2023-05-10T01:34:02;100824.56;;;7.47;99.76
75298;BME280;63896;45.990;18.688;2023-05-10T01:37:15;100825.69;;;7.52;100.00
75298;BME280;63896;45.990;18.688;2023-05-10T01:40:25;100825.22;;;7.49;99.79
75298;BME280;63896;45.990;18.688;2023-05-10T01:43:32;100820.50;;;7.44;100.00
75298;BME280;63896;45.990;18.688;2023-05-10T01:46:40;100816.19;;;7.43;100.00
75298;BME280;63896;45.990;18.688;2023-05-10T01:49:50;100817.56;;;7.39;99.96
75298;BME280;63896;45.990;18.688;2023-05-10T01:52:56;100816.66;;;7.32;100.00
75298;BME280;63896;45.990;18.688;2023-05-10T01:56:00;100811.47;;;7.24;100.00
75298;BME280;63896;45.990;18.688;2023-05-10T01:59:10;100810.13;;;7.13;100.00
75298;BME280;63896;45.990;18.688;2023-05-10T02:02:14;100815.56;;;7.12;100.00
75298;BME280;63896;45.990;18.688;2023-05-10T02:05:20;100814.47;;;7.06;100.00
75298;BME280;63896;45.990;18.688;2023-05-10T02:08:24;100808.72;;;7.03;100.00
75298;BME280;63896;45.990;18.688;2023-05-10T02:11:29;100806.97;;;6.95;100.00
75298;BME280;63896;45.990;18.688;2023-05-10T02:14:35;100807.81;;;6.96;100.00
75298;BME280;63896;45.990;18.688;2023-05-10T02:17:39;100808.84;;;6.95;100.00
75298;BME280;63896;45.990;18.688;2023-05-10T02:20:47;100798.09;;;6.96;100.00
75298;BME280;63896;45.990;18.688;2023-05-10T02:23:51;100803.34;;;6.96;100.00
75298;BME280;63896;45.990;18.688;2023-05-10T02:26:56;100797.09;;;6.97;100.00
75298;BME280;63896;45.990;18.688;2023-05-10T02:29:59;100787.72;;;6.95;100.00
75298;BME280;63896;45.990;18.688;2023-05-10T02:33:05;100786.91;;;6.94;100.00
75298;BME280;63896;45.990;18.688;2023-05-10T02:36:09;100787.06;;;6.93;100.00
75298;BME280;63896;45.990;18.688;2023-05-10T02:39:14;100784.81;;;6.90;100.00
75298;BME280;63896;45.990;18.688;2023-05-10T02:42:19;100785.44;;;6.92;100.00
75298;BME280;63896;45.990;18.688;2023-05-10T02:45:28;100778.72;;;6.89;100.00
75298;BME280;63896;45.990;18.688;2023-05-10T02:48:31;100774.41;;;6.88;100.00
75298;BME280;63896;45.990;18.688;2023-05-10T02:51:36;100779.25;;;6.85;100.00
75298;BME280;63896;45.990;18.688;2023-05-10T02:54:44;100778.78;;;6.81;100.00
75298;BME280;63896;45.990;18.688;2023-05-10T02:58:01;100783.16;;;6.74;100.00
75298;BME280;63896;45.990;18.688;2023-05-10T03:01:04;100781.78;;;6.63;100.00
75298;BME280;63896;45.990;18.688;2023-05-10T03:04:07;100783.28;;;6.58;100.00
75298;BME280;63896;45.990;18.688;2023-05-10T03:07:10;100784.97;;;6.74;100.00
75298;BME280;63896;45.990;18.688;2023-05-10T03:10:16;100783.97;;;6.75;100.00
75298;BME280;63896;45.990;18.688;2023-05-10T03:13:39;100781.88;;;6.70;100.00
75298;BME280;63896;45.990;18.688;2023-05-10T03:16:52;100775.78;;;6.69;100.00
75298;BME280;63896;45.990;18.688;2023-05-10T03:20:05;100783.97;;;6.75;100.00
75298;BME280;63896;45.990;18.688;2023-05-10T03:23:35;100790.75;;;6.69;100.00
75298;BME280;63896;45.990;18.688;2023-05-10T03:26:40;100783.69;;;6.69;100.00
75298;BME280;63896;45.990;18.688;2023-05-10T03:29:51;100786.50;;;6.68;100.00
75298;BME280;63896;45.990;18.688;2023-05-10T03:32:55;100786.97;;;6.72;100.00
75298;BME280;63896;45.990;18.688;2023-05-10T03:35:59;100786.97;;;6.72;100.00
75298;BME280;63896;45.990;18.688;2023-05-10T03:39:03;100786.25;;;6.78;100.00
75298;BME280;63896;45.990;18.688;2023-05-10T03:42:06;100774.63;;;6.87;100.00
75298;BME280;63896;45.990;18.688;2023-05-10T03:45:09;100778.09;;;6.87;100.00
75298;BME280;63896;45.990;18.688;2023-05-10T03:48:12;100776.69;;;6.91;100.00
75298;BME280;63896;45.990;18.688;2023-05-10T03:51:17;100787.00;;;7.01;100.00
75298;BME280;63896;45.990;18.688;2023-05-10T03:54:20;100782.81;;;7.06;100.00
75298;BME280;63896;45.990;18.688;2023-05-10T03:57:23;100781.91;;;7.14;100.00
75298;BME280;63896;45.990;18.688;2023-05-10T04:00:26;100783.63;;;7.22;100.00
75298;BME280;63896;45.990;18.688;2023-05-10T04:03:30;100780.91;;;7.30;100.00
75298;BME280;63896;45.990;18.688;2023-05-10T04:06:34;100783.09;;;7.41;100.00
75298;BME280;63896;45.990;18.688;2023-05-10T04:09:37;100781.97;;;7.50;100.00
75298;BME280;63896;45.990;18.688;2023-05-10T04:12:40;100787.34;;;7.56;100.00
75298;BME280;63896;45.990;18.688;2023-05-10T04:15:43;100779.75;;;7.68;100.00
75298;BME280;63896;45.990;18.688;2023-05-10T04:18:46;100785.94;;;7.75;100.00
75298;BME280;63896;45.990;18.688;2023-05-10T04:21:49;100784.06;;;7.90;99.34
75298;BME280;63896;45.990;18.688;2023-05-10T04:24:52;100790.06;;;8.20;97.43
75298;BME280;63896;45.990;18.688;2023-05-10T04:27:54;100796.31;;;8.55;96.11
75298;BME280;63896;45.990;18.688;2023-05-10T04:31:02;100784.09;;;8.82;94.33
75298;BME280;63896;45.990;18.688;2023-05-10T04:34:05;100775.31;;;9.09;92.79
75298;BME280;63896;45.990;18.688;2023-05-10T04:37:08;100780.28;;;9.19;91.52
75298;BME280;63896;45.990;18.688;2023-05-10T04:40:11;100774.63;;;9.28;90.76
75298;BME280;63896;45.990;18.688;2023-05-10T04:43:14;100769.97;;;9.37;90.55
75298;BME280;63896;45.990;18.688;2023-05-10T04:46:17;100776.13;;;9.50;90.51
75298;BME280;63896;45.990;18.688;2023-05-10T04:49:20;100774.78;;;9.68;89.45
75298;BME280;63896;45.990;18.688;2023-05-10T04:52:23;100765.06;;;9.94;88.69
75298;BME280;63896;45.990;18.688;2023-05-10T04:55:25;100768.16;;;10.04;87.62
75298;BME280;63896;45.990;18.688;2023-05-10T04:58:29;100774.75;;;10.48;86.63
75298;BME280;63896;45.990;18.688;2023-05-10T05:01:32;100780.47;;;10.65;85.30
75298;BME280;63896;45.990;18.688;2023-05-10T05:04:35;100765.97;;;10.67;84.77
75298;BME280;63896;45.990;18.688;2023-05-10T05:07:38;100769.22;;;10.82;83.27
75298;BME280;63896;45.990;18.688;2023-05-10T05:10:41;100776.78;;;10.79;83.01
75298;BME280;63896;45.990;18.688;2023-05-10T05:13:47;100778.47;;;11.44;80.63
75298;BME280;63896;45.990;18.688;2023-05-10T05:16:49;100777.22;;;11.53;79.53
75298;BME280;63896;45.990;18.688;2023-05-10T05:19:52;100787.16;;;11.77;78.69
75298;BME280;63896;45.990;18.688;2023-05-10T05:22:56;100779.25;;;12.02;77.82
75298;BME280;63896;45.990;18.688;2023-05-10T05:26:01;100782.53;;;11.53;79.98
75298;BME280;63896;45.990;18.688;2023-05-10T05:29:07;100781.53;;;11.54;80.22
75298;BME280;63896;45.990;18.688;2023-05-10T05:32:10;100791.34;;;11.47;79.14
75298;BME280;63896;45.990;18.688;2023-05-10T05:35:14;100784.50;;;11.77;78.34
75298;BME280;63896;45.990;18.688;2023-05-10T05:38:17;100782.97;;;11.94;78.67
75298;BME280;63896;45.990;18.688;2023-05-10T05:41:20;100796.22;;;12.01;77.60
75298;BME280;63896;45.990;18.688;2023-05-10T05:44:24;100790.16;;;12.25;76.43
75298;BME280;63896;45.990;18.688;2023-05-10T05:47:27;100788.44;;;12.37;75.71
75298;BME280;63896;45.990;18.688;2023-05-10T05:50:30;100790.28;;;12.62;74.38
75298;BME280;63896;45.990;18.688;2023-05-10T05:59:05;100793.19;;;13.28;72.32
75298;BME280;63896;45.990;18.688;2023-05-10T06:02:09;100791.50;;;13.09;72.82
75298;BME280;63896;45.990;18.688;2023-05-10T06:05:12;100800.19;;;13.41;71.23
75298;BME280;63896;45.990;18.688;2023-05-10T06:08:17;100784.63;;;13.74;69.38
75298;BME280;63896;45.990;18.688;2023-05-10T06:11:20;100793.19;;;13.76;69.81
75298;BME280;63896;45.990;18.688;2023-05-10T06:14:26;100789.81;;;13.69;69.34
75298;BME280;63896;45.990;18.688;2023-05-10T06:17:30;100791.97;;;13.42;70.99
75298;BME280;63896;45.990;18.688;2023-05-10T06:20:34;100786.47;;;14.03;68.79
75298;BME280;63896;45.990;18.688;2023-05-10T06:23:44;100778.47;;;14.03;68.43
75298;BME280;63896;45.990;18.688;2023-05-10T06:26:48;100786.13;;;14.41;67.39
75298;BME280;63896;45.990;18.688;2023-05-10T06:29:52;100795.25;;;14.63;67.36
75298;BME280;63896;45.990;18.688;2023-05-10T06:33:07;100797.06;;;14.40;66.62
75298;BME280;63896;45.990;18.688;2023-05-10T06:36:11;100798.00;;;14.57;66.25
75298;BME280;63896;45.990;18.688;2023-05-10T06:39:17;100792.22;;;15.18;65.38
75298;BME280;63896;45.990;18.688;2023-05-10T06:42:19;100786.78;;;15.01;64.92
75298;BME280;63896;45.990;18.688;2023-05-10T06:45:22;100790.56;;;15.40;64.03
75298;BME280;63896;45.990;18.688;2023-05-10T06:48:26;100792.94;;;14.90;65.59
75298;BME280;63896;45.990;18.688;2023-05-10T06:51:29;100793.59;;;15.84;63.08
75298;BME280;63896;45.990;18.688;2023-05-10T06:54:52;100795.66;;;16.22;61.16
75298;BME280;63896;45.990;18.688;2023-05-10T06:57:55;100802.91;;;15.81;61.64
75298;BME280;63896;45.990;18.688;2023-05-10T07:01:02;100802.09;;;16.37;59.78
75298;BME280;63896;45.990;18.688;2023-05-10T07:04:06;100792.28;;;16.14;60.90
75298;BME280;63896;45.990;18.688;2023-05-10T07:07:10;100787.47;;;16.45;60.58
75298;BME280;63896;45.990;18.688;2023-05-10T07:10:18;100781.19;;;17.88;55.82
75298;BME280;63896;45.990;18.688;2023-05-10T07:13:22;100780.38;;;18.14;54.42
75298;BME280;63896;45.990;18.688;2023-05-10T07:16:25;100777.38;;;18.37;53.39
75298;BME280;63896;45.990;18.688;2023-05-10T07:19:28;100766.84;;;18.36;53.10
75298;BME280;63896;45.990;18.688;2023-05-10T07:22:35;100778.47;;;18.73;53.08
75298;BME280;63896;45.990;18.688;2023-05-10T07:25:38;100780.09;;;19.78;49.55
75298;BME280;63896;45.990;18.688;2023-05-10T07:28:45;100774.00;;;18.84;51.47
75298;BME280;63896;45.990;18.688;2023-05-10T07:32:41;100778.44;;;19.57;49.38
75298;BME280;63896;45.990;18.688;2023-05-10T07:35:48;100779.34;;;20.03;48.66
75298;BME280;63896;45.990;18.688;2023-05-10T07:38:51;100780.31;;;19.10;50.67
75298;BME280;63896;45.990;18.688;2023-05-10T07:41:55;100781.44;;;18.77;51.33
75298;BME280;63896;45.990;18.688;2023-05-10T07:44:57;100778.97;;;19.12;50.77
75298;BME280;63896;45.990;18.688;2023-05-10T07:48:00;100783.06;;;19.77;48.18
75298;BME280;63896;45.990;18.688;2023-05-10T07:51:04;100775.88;;;20.78;46.15
75298;BME280;63896;45.990;18.688;2023-05-10T07:54:09;100771.28;;;20.18;46.92
75298;BME280;63896;45.990;18.688;2023-05-10T07:57:12;100781.59;;;18.97;49.98
75298;BME280;63896;45.990;18.688;2023-05-10T08:00:19;100777.09;;;19.65;48.49
75298;BME280;63896;45.990;18.688;2023-05-10T08:03:22;100779.06;;;20.05;47.78
75298;BME280;63896;45.990;18.688;2023-05-10T08:06:25;100777.00;;;20.37;47.15
75298;BME280;63896;45.990;18.688;2023-05-10T08:09:33;100789.59;;;19.39;48.60
75298;BME280;63896;45.990;18.688;2023-05-10T08:12:36;100785.44;;;19.11;49.52
75298;BME280;63896;45.990;18.688;2023-05-10T08:15:39;100783.19;;;17.76;52.92
75298;BME280;63896;45.990;18.688;2023-05-10T08:18:43;100779.50;;;19.56;48.86
75298;BME280;63896;45.990;18.688;2023-05-10T08:21:47;100782.34;;;20.27;46.88
75298;BME280;63896;45.990;18.688;2023-05-10T08:24:50;100767.69;;;19.67;49.10
75298;BME280;63896;45.990;18.688;2023-05-10T08:27:52;100766.53;;;18.00;52.56
75298;BME280;63896;45.990;18.688;2023-05-10T08:30:55;100774.66;;;18.05;52.77
75298;BME280;63896;45.990;18.688;2023-05-10T08:33:59;100776.13;;;18.18;51.95
75298;BME280;63896;45.990;18.688;2023-05-10T08:55:06;100757.06;;;21.58;43.69
75298;BME280;63896;45.990;18.688;2023-05-10T08:58:24;100755.06;;;22.85;40.86
75298;BME280;63896;45.990;18.688;2023-05-10T09:03:16;100749.47;;;20.80;45.67
75298;BME280;63896;45.990;18.688;2023-05-10T09:15:10;100741.13;;;20.77;45.18
75298;BME280;63896;45.990;18.688;2023-05-10T09:18:15;100740.28;;;19.95;47.32
75298;BME280;63896;45.990;18.688;2023-05-10T09:21:19;100741.09;;;20.06;46.85
75298;BME280;63896;45.990;18.688;2023-05-10T09:24:26;100731.47;;;19.33;48.27
75298;BME280;63896;45.990;18.688;2023-05-10T09:27:29;100738.91;;;19.11;49.99
75298;BME280;63896;45.990;18.688;2023-05-10T09:30:32;100722.38;;;21.75;43.68
75298;BME280;63896;45.990;18.688;2023-05-10T09:33:44;100717.78;;;21.21;44.78
75298;BME280;63896;45.990;18.688;2023-05-10T09:36:58;100726.41;;;18.84;49.88
75298;BME280;63896;45.990;18.688;2023-05-10T09:40:29;100728.09;;;19.68;47.84
75298;BME280;63896;45.990;18.688;2023-05-10T09:43:40;100720.09;;;20.59;45.51
75298;BME280;63896;45.990;18.688;2023-05-10T09:46:48;100719.31;;;20.48;45.28
75298;BME280;63896;45.990;18.688;2023-05-10T09:49:54;100720.28;;;19.61;47.30
75298;BME280;63896;45.990;18.688;2023-05-10T09:53:07;100713.44;;;19.33;48.63
75298;BME280;63896;45.990;18.688;2023-05-10T09:56:39;100711.50;;;18.67;48.83
75298;BME280;63896;45.990;18.688;2023-05-10T09:59:47;100714.97;;;20.07;46.83
75298;BME280;63896;45.990;18.688;2023-05-10T10:02:57;100709.44;;;21.18;43.17
75298;BME280;63896;45.990;18.688;2023-05-10T10:06:01;100712.53;;;22.62;41.41
75298;BME280;63896;45.990;18.688;2023-05-10T10:09:08;100700.63;;;20.87;43.55
75298;BME280;63896;45.990;18.688;2023-05-10T10:12:12;100707.94;;;22.28;41.01
75298;BME280;63896;45.990;18.688;2023-05-10T10:15:18;100710.13;;;22.55;40.45
75298;BME280;63896;45.990;18.688;2023-05-10T10:18:23;100708.53;;;21.43;41.47
75298;BME280;63896;45.990;18.688;2023-05-10T10:21:29;100708.84;;;22.48;40.49
75298;BME280;63896;45.990;18.688;2023-05-10T10:24:42;100695.56;;;24.67;36.48
75298;BME280;63896;45.990;18.688;2023-05-10T10:31:01;100698.41;;;22.65;39.38
75298;BME280;63896;45.990;18.688;2023-05-10T10:34:17;100709.28;;;20.74;43.00
75298;BME280;63896;45.990;18.688;2023-05-10T10:38:04;100694.78;;;20.29;44.44
75298;BME280;63896;45.990;18.688;2023-05-10T10:41:12;100699.28;;;19.53;46.44
75298;BME280;63896;45.990;18.688;2023-05-10T10:47:38;100682.63;;;23.01;38.82
75298;BME280;63896;45.990;18.688;2023-05-10T10:50:44;100680.53;;;22.11;39.96
75298;BME280;63896;45.990;18.688;2023-05-10T10:53:48;100688.69;;;21.13;42.83
75298;BME280;63896;45.990;18.688;2023-05-10T10:57:12;100679.00;;;23.29;37.58
75298;BME280;63896;45.990;18.688;2023-05-10T11:03:23;100672.19;;;24.52;35.62
75298;BME280;63896;45.990;18.688;2023-05-10T11:06:36;100672.16;;;22.70;39.30
75298;BME280;63896;45.990;18.688;2023-05-10T11:09:40;100664.78;;;24.58;36.28
75298;BME280;63896;45.990;18.688;2023-05-10T11:13:09;100667.25;;;21.32;41.30
75298;BME280;63896;45.990;18.688;2023-05-10T11:16:13;100669.94;;;22.96;38.47
75298;BME280;63896;45.990;18.688;2023-05-10T11:19:18;100653.66;;;26.39;31.79
75298;BME280;63896;45.990;18.688;2023-05-10T11:22:24;100667.56;;;25.35;33.59
75298;BME280;63896;45.990;18.688;2023-05-10T11:25:28;100653.47;;;23.16;36.77
75298;BME280;63896;45.990;18.688;2023-05-10T11:28:31;100652.53;;;23.82;37.17
75298;BME280;63896;45.990;18.688;2023-05-10T11:31:56;100650.91;;;23.81;37.16
75298;BME280;63896;45.990;18.688;2023-05-10T11:35:13;100639.06;;;23.40;36.62
75298;BME280;63896;45.990;18.688;2023-05-10T11:38:16;100646.47;;;23.10;37.13
75298;BME280;63896;45.990;18.688;2023-05-10T11:41:20;100628.63;;;25.39;32.97
75298;BME280;63896;45.990;18.688;2023-05-10T11:44:32;100653.84;;;22.33;38.75
75298;BME280;63896;45.990;18.688;2023-05-10T11:47:37;100632.19;;;26.06;31.75
75298;BME280;63896;45.990;18.688;2023-05-10T11:50:48;100640.97;;;27.13;30.02
75298;BME280;63896;45.990;18.688;2023-05-10T11:53:54;100630.19;;;26.91;30.07
75298;BME280;63896;45.990;18.688;2023-05-10T11:56:57;100639.44;;;27.64;29.71
75298;BME280;63896;45.990;18.688;2023-05-10T12:00:01;100619.78;;;29.60;25.46
75298;BME280;63896;45.990;18.688;2023-05-10T12:03:09;100614.09;;;28.73;26.24
75298;BME280;63896;45.990;18.688;2023-05-10T12:06:20;100633.59;;;28.17;26.99
75298;BME280;63896;45.990;18.688;2023-05-10T12:10:10;100632.38;;;28.35;27.41
75298;BME280;63896;45.990;18.688;2023-05-10T12:13:48;100623.97;;;27.42;28.28
75298;BME280;63896;45.990;18.688;2023-05-10T12:16:52;100610.16;;;28.54;27.24
75298;BME280;63896;45.990;18.688;2023-05-10T12:20:12;100603.50;;;28.34;27.54
75298;BME280;63896;45.990;18.688;2023-05-10T12:23:40;100614.34;;;27.02;29.95
75298;BME280;63896;45.990;18.688;2023-05-10T12:26:51;100605.16;;;25.79;30.21
75298;BME280;63896;45.990;18.688;2023-05-10T12:29:59;100606.69;;;26.56;28.75
75298;BME280;63896;45.990;18.688;2023-05-10T12:33:13;100608.13;;;27.70;28.42
75298;BME280;63896;45.990;18.688;2023-05-10T12:36:23;100602.28;;;24.49;33.28
75298;BME280;63896;45.990;18.688;2023-05-10T12:39:54;100610.44;;;22.44;36.87
75298;BME280;63896;45.990;18.688;2023-05-10T12:42:56;100599.72;;;21.76;38.25
75298;BME280;63896;45.990;18.688;2023-05-10T12:46:10;100590.75;;;24.11;34.07
75298;BME280;63896;45.990;18.688;2023-05-10T12:49:19;100588.28;;;24.97;31.79
75298;BME280;63896;45.990;18.688;2023-05-10T12:52:22;100583.59;;;27.61;28.95
75298;BME280;63896;45.990;18.688;2023-05-10T12:55:25;100579.69;;;28.43;27.37
75298;BME280;63896;45.990;18.688;2023-05-10T12:58:28;100578.47;;;27.51;27.98
75298;BME280;63896;45.990;18.688;2023-05-10T13:01:38;100565.09;;;26.72;28.72
75298;BME280;63896;45.990;18.688;2023-05-10T13:04:41;100574.75;;;28.36;26.37
75298;BME280;63896;45.990;18.688;2023-05-10T13:08:13;100559.28;;;28.11;27.23
75298;BME280;63896;45.990;18.688;2023-05-10T13:11:15;100560.34;;;27.12;29.43
75298;BME280;63896;45.990;18.688;2023-05-10T13:14:22;100557.69;;;28.02;28.15
75298;BME280;63896;45.990;18.688;2023-05-10T13:17:25;100552.50;;;27.11;28.40
75298;BME280;63896;45.990;18.688;2023-05-10T13:20:32;100557.38;;;26.66;29.07
75298;BME280;63896;45.990;18.688;2023-05-10T13:23:35;100541.94;;;24.11;32.79
75298;BME280;63896;45.990;18.688;2023-05-10T13:26:41;100537.03;;;24.68;32.60
75298;BME280;63896;45.990;18.688;2023-05-10T13:30:23;100540.31;;;22.95;33.97
75298;BME280;63896;45.990;18.688;2023-05-10T13:33:27;100549.56;;;21.70;37.22
75298;BME280;63896;45.990;18.688;2023-05-10T13:36:31;100552.44;;;21.78;37.42
75298;BME280;63896;45.990;18.688;2023-05-10T13:39:34;100556.72;;;21.84;37.14
75298;BME280;63896;45.990;18.688;2023-05-10T13:42:37;100538.09;;;22.36;36.28
75298;BME280;63896;45.990;18.688;2023-05-10T13:45:40;100543.44;;;21.93;37.79
75298;BME280;63896;45.990;18.688;2023-05-10T13:48:43;100535.00;;;23.08;36.23
75298;BME280;63896;45.990;18.688;2023-05-10T13:51:46;100537.78;;;22.13;36.92
75298;BME280;63896;45.990;18.688;2023-05-10T13:54:48;100534.16;;;22.28;36.88
75298;BME280;63896;45.990;18.688;2023-05-10T13:57:51;100530.19;;;21.24;38.55
75298;BME280;63896;45.990;18.688;2023-05-10T14:00:55;100531.16;;;20.99;37.67
75298;BME280;63896;45.990;18.688;2023-05-10T14:03:59;100533.59;;;20.47;38.49
75298;BME280;63896;45.990;18.688;2023-05-10T14:07:02;100539.34;;;20.84;37.59
75298;BME280;63896;45.990;18.688;2023-05-10T14:10:08;100530.06;;;21.00;36.99
75298;BME280;63896;45.990;18.688;2023-05-10T14:13:29;100535.41;;;21.10;37.52
75298;BME280;63896;45.990;18.688;2023-05-10T14:16:32;100523.72;;;21.25;37.07
75298;BME280;63896;45.990;18.688;2023-05-10T14:19:35;100521.69;;;21.02;37.78
75298;BME280;63896;45.990;18.688;2023-05-10T14:22:38;100520.25;;;21.19;37.33
75298;BME280;63896;45.990;18.688;2023-05-10T14:25:40;100509.41;;;20.80;39.03
75298;BME280;63896;45.990;18.688;2023-05-10T14:28:44;100509.38;;;20.85;38.43
75298;BME280;63896;45.990;18.688;2023-05-10T14:31:50;100511.31;;;20.75;38.73
75298;BME280;63896;45.990;18.688;2023-05-10T14:34:52;100509.38;;;20.26;39.45
75298;BME280;63896;45.990;18.688;2023-05-10T14:37:55;100511.38;;;19.80;40.21
75298;BME280;63896;45.990;18.688;2023-05-10T14:40:59;100495.69;;;19.97;41.11
75298;BME280;63896;45.990;18.688;2023-05-10T14:44:02;100504.38;;;19.79;41.01
75298;BME280;63896;45.990;18.688;2023-05-10T14:47:05;100514.25;;;20.19;40.32
75298;BME280;63896;45.990;18.688;2023-05-10T14:50:09;100513.00;;;20.66;40.05
75298;BME280;63896;45.990;18.688;2023-05-10T14:53:20;100515.00;;;20.40;39.11
75298;BME280;63896;45.990;18.688;2023-05-10T14:56:23;100515.28;;;20.38;38.92
75298;BME280;63896;45.990;18.688;2023-05-10T14:59:25;100505.88;;;20.21;40.52
75298;BME280;63896;45.990;18.688;2023-05-10T15:02:30;100510.22;;;20.07;40.67
75298;BME280;63896;45.990;18.688;2023-05-10T15:05:33;100498.88;;;20.35;39.68
75298;BME280;63896;45.990;18.688;2023-05-10T15:08:37;100513.94;;;20.36;39.86
75298;BME280;63896;45.990;18.688;2023-05-10T15:11:40;100521.50;;;20.29;40.61
75298;BME280;63896;45.990;18.688;2023-05-10T15:14:43;100507.50;;;20.22;40.58
75298;BME280;63896;45.990;18.688;2023-05-10T15:17:47;100505.28;;;20.44;40.64
75298;BME280;63896;45.990;18.688;2023-05-10T15:20:49;100512.63;;;20.13;41.43
75298;BME280;63896;45.990;18.688;2023-05-10T15:23:52;100514.31;;;19.94;41.06
75298;BME280;63896;45.990;18.688;2023-05-10T15:26:55;100505.16;;;19.85;41.30
75298;BME280;63896;45.990;18.688;2023-05-10T15:29:58;100512.44;;;19.84;41.93
75298;BME280;63896;45.990;18.688;2023-05-10T15:33:02;100503.81;;;19.77;41.58
75298;BME280;63896;45.990;18.688;2023-05-10T15:36:05;100500.88;;;19.79;41.22
75298;BME280;63896;45.990;18.688;2023-05-10T15:39:09;100508.44;;;19.62;40.93
75298;BME280;63896;45.990;18.688;2023-05-10T15:42:12;100499.53;;;19.71;41.28
75298;BME280;63896;45.990;18.688;2023-05-10T15:45:15;100506.78;;;19.66;42.24
75298;BME280;63896;45.990;18.688;2023-05-10T15:48:18;100492.00;;;19.63;41.46
75298;BME280;63896;45.990;18.688;2023-05-10T15:51:21;100497.66;;;19.72;41.93
75298;BME280;63896;45.990;18.688;2023-05-10T15:54:24;100493.06;;;19.32;42.11
75298;BME280;63896;45.990;18.688;2023-05-10T15:57:27;100485.81;;;19.42;42.50
75298;BME280;63896;45.990;18.688;2023-05-10T16:00:30;100496.31;;;19.64;43.01
75298;BME280;63896;45.990;18.688;2023-05-10T16:03:33;100490.09;;;19.74;42.01
75298;BME280;63896;45.990;18.688;2023-05-10T16:06:38;100492.00;;;19.58;41.53
75298;BME280;63896;45.990;18.688;2023-05-10T16:09:41;100490.41;;;19.42;43.29
75298;BME280;63896;45.990;18.688;2023-05-10T16:12:44;100498.97;;;19.24;43.40
75298;BME280;63896;45.990;18.688;2023-05-10T16:15:47;100499.78;;;19.19;43.01
75298;BME280;63896;45.990;18.688;2023-05-10T16:18:51;100493.03;;;19.12;43.51
75298;BME280;63896;45.990;18.688;2023-05-10T16:22:16;100500.84;;;18.98;43.69
75298;BME280;63896;45.990;18.688;2023-05-10T16:25:19;100503.25;;;18.94;44.42
75298;BME280;63896;45.990;18.688;2023-05-10T16:28:25;100493.81;;;18.87;44.40
75298;BME280;63896;45.990;18.688;2023-05-10T16:31:32;100512.91;;;18.80;44.99
75298;BME280;63896;45.990;18.688;2023-05-10T16:34:36;100499.97;;;18.77;44.65
75298;BME280;63896;45.990;18.688;2023-05-10T16:37:39;100495.63;;;18.56;44.84
75298;BME280;63896;45.990;18.688;2023-05-10T16:40:41;100502.91;;;18.66;44.96
75298;BME280;63896;45.990;18.688;2023-05-10T16:43:44;100502.63;;;18.57;45.40
75298;BME280;63896;45.990;18.688;2023-05-10T16:46:47;100508.41;;;18.39;45.44
75298;BME280;63896;45.990;18.688;2023-05-10T16:49:50;100507.91;;;18.47;44.94
75298;BME280;63896;45.990;18.688;2023-05-10T16:52:53;100513.53;;;18.40;45.02
75298;BME280;63896;45.990;18.688;2023-05-10T16:55:56;100512.19;;;18.38;45.76